Time;durP1;ratioP1;P1;durP2;ratioP2;P2;SDS_P1;SDS_P2;PMS_P1;PMS_P2;Temp;Humidity;BMP_temperature;BMP_pressure;BME280_temperature;BME280_humidity;BME280_pressure;Samples;Min_cycle;Max_cycle;Signal;HPM_P1;HPM_P2
2021/10/24 00:01:31;;;;;;;6.50;5.90;;;;;;;;;;5107066;28;24394;-59
2021/10/24 00:03:56;;;;;;;8.00;5.80;;;;;;;;;;5105009;28;24955;-58
2021/10/24 00:06:21;;;;;;;7.90;6.10;;;;;;;;;;5101258;28;24545;-58
2021/10/24 00:08:46;;;;;;;6.75;5.80;;;;;;;;;;5100955;28;24390;-59
2021/10/24 00:11:12;;;;;;;6.10;5.50;;;;;;;;;;5104413;28;24515;-59
2021/10/24 00:13:37;;;;;;;6.10;5.50;;;;;;;;;;5106642;28;24421;-58
2021/10/24 00:16:02;;;;;;;6.50;5.90;;;;;;;;;;5107042;28;24431;-58
2021/10/24 00:18:27;;;;;;;6.40;5.70;;;;;;;;;;5104669;28;24782;-59
2021/10/24 00:20:56;;;;;;;6.32;5.70;;;;;;;;;;5100556;28;25255;-59
2021/10/24 00:23:21;;;;;;;7.60;5.83;;;;;;;;;;5100882;28;24429;-59
2021/10/24 00:25:47;;;;;;;6.90;5.90;;;;;;;;;;5104384;28;24433;-59
2021/10/24 00:28:13;;;;;;;6.20;5.60;;;;;;;;;;5104826;28;24473;-59
2021/10/24 00:30:38;;;;;;;7.30;5.43;;;;;;;;;;5105989;28;24852;-59
2021/10/24 00:33:06;;;;;;;6.20;5.60;;;;;;;;;;5104359;28;24410;-59
2021/10/24 00:35:31;;;;;;;6.05;5.40;;;;;;;;;;5100969;28;25483;-58
2021/10/24 00:37:57;;;;;;;6.18;5.55;;;;;;;;;;5100265;28;24388;-59
2021/10/24 00:40:22;;;;;;;7.40;5.20;;;;;;;;;;5096670;28;24493;-58
2021/10/24 00:42:49;;;;;;;5.50;5.00;;;;;;;;;;5085483;28;24448;-58
2021/10/24 00:45:14;;;;;;;6.00;5.40;;;;;;;;;;5083894;28;24476;-58
2021/10/24 00:47:39;;;;;;;6.03;5.53;;;;;;;;;;5085522;28;25027;-58
2021/10/24 00:50:04;;;;;;;6.30;5.67;;;;;;;;;;5085595;28;24459;-58
2021/10/24 00:52:30;;;;;;;6.40;5.37;;;;;;;;;;5079756;28;24457;-58
2021/10/24 00:54:55;;;;;;;6.20;5.43;;;;;;;;;;5079556;28;24410;-59
2021/10/24 00:57:20;;;;;;;5.90;5.30;;;;;;;;;;5083978;28;24383;-58
2021/10/24 00:59:45;;;;;;;6.68;5.97;;;;;;;;;;5085363;28;24940;-58
2021/10/24 01:02:10;;;;;;;6.73;6.03;;;;;;;;;;5083295;28;24940;-58
2021/10/24 01:04:36;;;;;;;6.70;6.00;;;;;;;;;;5081676;28;24393;-58
2021/10/24 01:07:04;;;;;;;6.88;5.75;;;;;;;;;;5081344;28;24402;-58
2021/10/24 01:09:31;;;;;;;8.27;5.95;;;;;;;;;;5081293;28;24410;-58
2021/10/24 01:11:56;;;;;;;6.72;6.03;;;;;;;;;;5082959;28;24417;-58
2021/10/24 01:14:22;;;;;;;6.15;5.55;;;;;;;;;;5083225;28;24497;-59
2021/10/24 01:16:47;;;;;;;6.30;5.60;;;;;;;;;;5084786;28;24428;-58
2021/10/24 01:19:13;;;;;;;6.60;6.00;;;;;;;;;;5079597;28;24402;-59
2021/10/24 01:21:38;;;;;;;6.60;6.00;;;;;;;;;;5078762;28;24963;-59
2021/10/24 01:24:04;;;;;;;6.20;5.50;;;;;;;;;;5081104;28;24398;-58
2021/10/24 01:26:29;;;;;;;6.00;5.50;;;;;;;;;;5083329;28;24386;-58
2021/10/24 01:28:55;;;;;;;6.43;5.83;;;;;;;;;;5084251;28;24448;-58
2021/10/24 01:31:21;;;;;;;6.70;6.00;;;;;;;;;;5082616;28;24437;-59
2021/10/24 01:33:46;;;;;;;6.70;6.10;;;;;;;;;;5080808;28;24502;-58
2021/10/24 01:36:11;;;;;;;7.10;6.40;;;;;;;;;;5080919;28;24485;-58
2021/10/24 01:38:38;;;;;;;7.10;5.90;;;;;;;;;;5079124;28;24398;-58
2021/10/24 01:41:07;;;;;;;7.22;6.47;;;;;;;;;;5094070;28;24463;-59
2021/10/24 01:43:32;;;;;;;6.40;5.80;;;;;;;;;;5105304;28;24427;-58
2021/10/24 01:45:57;;;;;;;6.35;5.75;;;;;;;;;;5104414;28;24978;-57
2021/10/24 01:48:23;;;;;;;6.50;5.90;;;;;;;;;;5099434;28;24443;-58
2021/10/24 01:50:49;;;;;;;6.68;6.07;;;;;;;;;;5098936;28;24418;-58
2021/10/24 01:53:18;;;;;;;6.70;6.10;;;;;;;;;;5100932;28;24577;-58
2021/10/24 01:55:44;;;;;;;6.78;6.00;;;;;;;;;;5102881;28;24397;-57
2021/10/24 01:58:09;;;;;;;6.65;6.15;;;;;;;;;;5102372;28;24973;-57
2021/10/24 02:00:35;;;;;;;6.30;5.70;;;;;;;;;;5104735;28;24402;-58
2021/10/24 02:03:00;;;;;;;6.93;6.23;;;;;;;;;;5104264;27;24756;-57
2021/10/24 02:05:25;;;;;;;6.93;6.20;;;;;;;;;;5098571;28;25101;-59
2021/10/24 02:07:50;;;;;;;7.45;6.10;;;;;;;;;;5098787;28;24397;-60
2021/10/24 02:10:17;;;;;;;6.17;5.57;;;;;;;;;;5100890;28;24404;-59
2021/10/24 02:12:42;;;;;;;6.55;5.95;;;;;;;;;;5104274;28;24420;-60
2021/10/24 02:15:08;;;;;;;6.57;5.97;;;;;;;;;;5103735;28;24402;-60
2021/10/24 02:17:33;;;;;;;6.25;5.65;;;;;;;;;;5102766;28;24458;-60
2021/10/24 02:19:58;;;;;;;7.00;6.30;;;;;;;;;;5101568;28;24936;-58
2021/10/24 02:22:24;;;;;;;7.10;6.00;;;;;;;;;;5098312;28;25003;-57
2021/10/24 02:24:49;;;;;;;6.77;6.07;;;;;;;;;;5100476;28;24447;-58
2021/10/24 02:27:14;;;;;;;6.40;5.77;;;;;;;;;;5102523;28;24393;-58
2021/10/24 02:29:39;;;;;;;6.80;6.07;;;;;;;;;;5103788;28;24780;-58
2021/10/24 02:32:05;;;;;;;6.70;6.10;;;;;;;;;;5103770;28;24955;-58
2021/10/24 02:34:30;;;;;;;6.65;6.10;;;;;;;;;;5098571;28;24406;-58
2021/10/24 02:36:55;;;;;;;6.60;6.00;;;;;;;;;;5098197;28;25016;-58
2021/10/24 02:39:21;;;;;;;6.60;6.00;;;;;;;;;;5100145;28;24402;-58
2021/10/24 02:41:46;;;;;;;6.90;6.30;;;;;;;;;;5083044;28;24978;-57
2021/10/24 02:44:13;;;;;;;6.10;5.50;;;;;;;;;;5081357;28;24956;-57
2021/10/24 02:46:38;;;;;;;5.93;5.43;;;;;;;;;;5081778;28;24493;-58
2021/10/24 02:49:03;;;;;;;6.60;6.00;;;;;;;;;;5079665;28;24477;-57
2021/10/24 02:51:28;;;;;;;6.38;5.78;;;;;;;;;;5077925;28;24398;-57
2021/10/24 02:53:53;;;;;;;7.00;6.30;;;;;;;;;;5079570;28;24489;-57
2021/10/24 02:56:19;;;;;;;7.03;6.32;;;;;;;;;;5083688;28;24452;-58
2021/10/24 02:58:44;;;;;;;6.23;5.73;;;;;;;;;;5083411;28;24724;-57
2021/10/24 03:01:09;;;;;;;5.30;4.90;;;;;;;;;;5081660;28;24436;-58
2021/10/24 03:03:34;;;;;;;6.00;5.50;;;;;;;;;;5079800;28;24428;-58
2021/10/24 03:05:59;;;;;;;5.53;5.13;;;;;;;;;;5079453;28;24405;-58
2021/10/24 03:08:24;;;;;;;6.20;5.70;;;;;;;;;;5079439;28;24997;-58
2021/10/24 03:10:50;;;;;;;5.83;5.33;;;;;;;;;;5079840;28;24390;-58
2021/10/24 03:13:15;;;;;;;6.00;5.50;;;;;;;;;;5083190;28;25081;-58
2021/10/24 03:15:41;;;;;;;6.53;5.93;;;;;;;;;;5082861;28;24394;-58
2021/10/24 03:18:06;;;;;;;6.68;6.07;;;;;;;;;;5081273;28;24935;-58
2021/10/24 03:20:31;;;;;;;6.20;5.70;;;;;;;;;;5077548;28;24402;-58
2021/10/24 03:22:56;;;;;;;6.20;5.70;;;;;;;;;;5077351;28;24386;-58
2021/10/24 03:25:21;;;;;;;7.10;6.50;;;;;;;;;;5081560;28;24548;-58
2021/10/24 03:27:47;;;;;;;6.50;5.90;;;;;;;;;;5083416;28;24405;-58
2021/10/24 03:30:12;;;;;;;7.15;6.45;;;;;;;;;;5080976;28;24685;-58
2021/10/24 03:32:37;;;;;;;6.37;5.77;;;;;;;;;;5082101;28;24426;-58
2021/10/24 03:35:02;;;;;;;7.00;6.40;;;;;;;;;;5083449;28;24405;-58
2021/10/24 03:37:27;;;;;;;7.00;6.40;;;;;;;;;;5081548;28;25068;-58
2021/10/24 03:39:53;;;;;;;7.50;6.70;;;;;;;;;;5086338;28;24767;-58
2021/10/24 03:42:18;;;;;;;7.70;7.00;;;;;;;;;;5105451;28;24953;-58
2021/10/24 03:44:43;;;;;;;7.43;6.83;;;;;;;;;;5107107;28;24507;-58
2021/10/24 03:47:08;;;;;;;8.15;7.35;;;;;;;;;;5105245;28;24394;-58
2021/10/24 03:49:34;;;;;;;7.93;7.23;;;;;;;;;;5101658;27;24494;-58
2021/10/24 03:51:59;;;;;;;7.33;6.63;;;;;;;;;;5101211;28;24409;-58
2021/10/24 03:54:24;;;;;;;7.40;6.70;;;;;;;;;;5103009;28;24978;-58
2021/10/24 03:56:49;;;;;;;8.10;7.30;;;;;;;;;;5103425;28;24382;-58
2021/10/24 03:59:14;;;;;;;7.50;6.80;;;;;;;;;;5106811;28;24381;-58
2021/10/24 04:01:39;;;;;;;8.07;7.22;;;;;;;;;;5106668;28;24416;-58
2021/10/24 04:04:04;;;;;;;8.30;7.50;;;;;;;;;;5107183;28;24428;-58
2021/10/24 04:06:30;;;;;;;8.10;7.30;;;;;;;;;;5100982;28;25002;-58
2021/10/24 04:08:55;;;;;;;8.10;7.30;;;;;;;;;;5101033;27;24405;-57
2021/10/24 04:11:20;;;;;;;7.40;6.70;;;;;;;;;;5105109;28;24485;-58
2021/10/24 04:13:46;;;;;;;8.73;7.70;;;;;;;;;;5106510;28;24394;-58
2021/10/24 04:16:11;;;;;;;7.67;6.87;;;;;;;;;;5104497;28;24381;-57
2021/10/24 04:18:36;;;;;;;8.20;7.40;;;;;;;;;;5106446;28;24477;-58
2021/10/24 04:21:01;;;;;;;8.00;7.20;;;;;;;;;;5102637;28;24417;-58
2021/10/24 04:23:27;;;;;;;7.90;7.13;;;;;;;;;;5100674;28;24441;-57
2021/10/24 04:25:53;;;;;;;8.30;7.60;;;;;;;;;;5102294;28;24497;-58
2021/10/24 04:28:20;;;;;;;7.63;6.70;;;;;;;;;;5105819;28;24416;-58
2021/10/24 04:30:45;;;;;;;7.40;6.80;;;;;;;;;;5106197;28;24827;-58
2021/10/24 04:33:12;;;;;;;8.18;7.47;;;;;;;;;;5103438;28;24971;-58
2021/10/24 04:35:37;;;;;;;7.50;6.90;;;;;;;;;;5100417;28;24495;-58
2021/10/24 04:38:03;;;;;;;7.90;7.10;;;;;;;;;;5102306;28;24508;-58
2021/10/24 04:40:28;;;;;;;7.90;7.10;;;;;;;;;;5096104;28;24405;-58
2021/10/24 04:42:53;;;;;;;7.40;6.70;;;;;;;;;;5085030;28;24866;-58
2021/10/24 04:45:19;;;;;;;7.85;7.05;;;;;;;;;;5084012;28;24818;-57
2021/10/24 04:47:44;;;;;;;7.57;6.78;;;;;;;;;;5085643;28;24440;-58
2021/10/24 04:50:09;;;;;;;7.70;7.00;;;;;;;;;;5081458;28;24395;-58
2021/10/24 04:52:35;;;;;;;7.30;6.60;;;;;;;;;;5081475;28;24417;-58
2021/10/24 04:55:00;;;;;;;8.25;7.00;;;;;;;;;;5081653;28;24729;-58
2021/10/24 04:57:25;;;;;;;7.20;6.53;;;;;;;;;;5083529;28;24398;-58
2021/10/24 04:59:50;;;;;;;7.40;6.60;;;;;;;;;;5085209;28;24963;-58
2021/10/24 05:02:16;;;;;;;7.50;6.80;;;;;;;;;;5083357;28;24923;-58
2021/10/24 05:04:41;;;;;;;7.60;6.80;;;;;;;;;;5084619;28;24543;-58
2021/10/24 05:07:06;;;;;;;8.10;7.30;;;;;;;;;;5083576;28;24462;-58
2021/10/24 05:09:31;;;;;;;7.40;6.65;;;;;;;;;;5079591;28;24463;-58
2021/10/24 05:11:56;;;;;;;7.80;6.60;;;;;;;;;;5079282;28;24533;-58
2021/10/24 05:14:21;;;;;;;7.20;6.50;;;;;;;;;;5085463;28;24391;-58
2021/10/24 05:16:46;;;;;;;7.47;6.70;;;;;;;;;;5084979;28;24401;-58
2021/10/24 05:19:12;;;;;;;7.75;6.95;;;;;;;;;;5082867;28;24473;-60
2021/10/24 05:21:37;;;;;;;7.40;6.70;;;;;;;;;;5079382;28;24473;-58
2021/10/24 05:24:03;;;;;;;8.00;7.30;;;;;;;;;;5081097;28;24410;-58
2021/10/24 05:26:29;;;;;;;7.70;6.97;;;;;;;;;;5083307;28;24474;-58
2021/10/24 05:28:54;;;;;;;7.07;6.47;;;;;;;;;;5084579;28;24409;-58
2021/10/24 05:31:19;;;;;;;7.43;6.73;;;;;;;;;;5083001;28;24574;-58
2021/10/24 05:33:45;;;;;;;8.95;7.70;;;;;;;;;;5084084;28;24410;-58
2021/10/24 05:36:10;;;;;;;7.77;7.07;;;;;;;;;;5080707;28;24536;-58
2021/10/24 05:38:35;;;;;;;8.97;8.17;;;;;;;;;;5079415;28;25330;-58
2021/10/24 05:41:00;;;;;;;8.93;8.03;;;;;;;;;;5093609;28;24506;-58
2021/10/24 05:43:25;;;;;;;8.80;7.90;;;;;;;;;;5105072;28;25389;-58
2021/10/24 05:45:51;;;;;;;8.93;8.13;;;;;;;;;;5104905;28;24402;-58
2021/10/24 05:48:16;;;;;;;9.38;8.57;;;;;;;;;;5102627;28;24393;-58
2021/10/24 05:50:41;;;;;;;8.80;8.00;;;;;;;;;;5099115;28;24402;-58
2021/10/24 05:53:07;;;;;;;9.63;8.63;;;;;;;;;;5100260;28;24421;-58
2021/10/24 05:55:32;;;;;;;9.90;8.90;;;;;;;;;;5101921;28;25010;-58
2021/10/24 05:57:57;;;;;;;11.03;9.93;;;;;;;;;;5104565;28;24966;-59
2021/10/24 06:00:23;;;;;;;10.65;9.55;;;;;;;;;;5103079;28;24401;-59
2021/10/24 06:02:48;;;;;;;10.00;9.10;;;;;;;;;;5104431;28;24409;-59
2021/10/24 06:05:13;;;;;;;10.00;8.90;;;;;;;;;;5099195;28;24465;-59
2021/10/24 06:07:38;;;;;;;10.50;9.40;;;;;;;;;;5099204;28;24404;-61
2021/10/24 06:10:17;;;;;;;10.38;9.30;;;;;;;;;;5102592;28;24420;-59
2021/10/24 06:12:51;;;;;;;10.30;9.25;;;;;;;;;;5103829;28;24417;-59
2021/10/24 06:15:17;;;;;;;10.43;9.43;;;;;;;;;;5102496;28;24497;-59
2021/10/24 06:17:43;;;;;;;9.57;8.60;;;;;;;;;;5104330;27;24481;-59
2021/10/24 06:20:08;;;;;;;9.80;8.90;;;;;;;;;;5102382;28;24397;-59
2021/10/24 06:22:34;;;;;;;9.80;8.80;;;;;;;;;;5099431;28;24397;-59
2021/10/24 06:24:59;;;;;;;10.37;9.47;;;;;;;;;;5100588;28;24939;-59
2021/10/24 06:27:25;;;;;;;10.13;9.10;;;;;;;;;;5099010;28;24382;-59
2021/10/24 06:29:50;;;;;;;12.13;9.30;;;;;;;;;;5100529;28;24402;-59
2021/10/24 06:32:15;;;;;;;11.43;9.17;;;;;;;;;;5103640;28;24953;-59
2021/10/24 06:34:40;;;;;;;9.03;8.23;;;;;;;;;;5103815;28;24390;-58
2021/10/24 06:37:05;;;;;;;10.23;9.32;;;;;;;;;;5104198;28;24450;-58
2021/10/24 06:39:31;;;;;;;10.03;9.03;;;;;;;;;;5100311;28;24817;-59
2021/10/24 06:41:56;;;;;;;9.50;8.60;;;;;;;;;;5077975;28;24390;-58
2021/10/24 06:44:21;;;;;;;9.77;8.50;;;;;;;;;;5080107;28;24936;-59
2021/10/24 06:46:46;;;;;;;9.67;8.67;;;;;;;;;;5083385;28;24928;-59
2021/10/24 06:49:11;;;;;;;9.18;8.13;;;;;;;;;;5081685;28;24450;-59
2021/10/24 06:51:36;;;;;;;9.20;8.20;;;;;;;;;;5083841;28;24453;-59
2021/10/24 06:54:02;;;;;;;8.87;8.00;;;;;;;;;;5081603;28;24394;-58
2021/10/24 06:56:27;;;;;;;9.13;8.32;;;;;;;;;;5078128;28;25679;-58
2021/10/24 06:58:52;;;;;;;8.73;7.90;;;;;;;;;;5079939;28;24402;-57
2021/10/24 07:01:17;;;;;;;9.05;8.15;;;;;;;;;;5083277;28;24938;-59
2021/10/24 07:03:42;;;;;;;9.43;8.43;;;;;;;;;;5083308;28;24399;-59
2021/10/24 07:06:07;;;;;;;9.27;7.37;;;;;;;;;;5082233;28;24565;-58
2021/10/24 07:08:33;;;;;;;8.30;7.50;;;;;;;;;;5083677;28;24387;-58
2021/10/24 07:10:58;;;;;;;9.15;7.57;;;;;;;;;;5082017;28;24479;-58
2021/10/24 07:13:23;;;;;;;7.30;6.60;;;;;;;;;;5085602;28;24406;-58
2021/10/24 07:15:48;;;;;;;8.65;7.75;;;;;;;;;;5087128;28;24398;-58
2021/10/24 07:18:13;;;;;;;8.40;7.60;;;;;;;;;;5085064;28;24383;-58
2021/10/24 07:20:38;;;;;;;7.60;6.90;;;;;;;;;;5083612;28;24505;-59
2021/10/24 07:23:04;;;;;;;7.10;6.40;;;;;;;;;;5083470;28;24401;-58
2021/10/24 07:25:29;;;;;;;8.30;6.80;;;;;;;;;;5083584;28;24390;-59
2021/10/24 07:27:54;;;;;;;7.50;6.80;;;;;;;;;;5087281;28;24390;-58
2021/10/24 07:30:21;;;;;;;7.30;6.60;;;;;;;;;;5085236;28;24395;-58
2021/10/24 07:32:46;;;;;;;7.40;6.70;;;;;;;;;;5086591;28;24579;-58
2021/10/24 07:35:11;;;;;;;7.80;7.00;;;;;;;;;;5083189;28;24493;-59
2021/10/24 07:37:38;;;;;;;7.38;6.68;;;;;;;;;;5081803;28;24401;-59
2021/10/24 07:40:04;;;;;;;9.00;7.20;;;;;;;;;;5087758;28;24429;-59
2021/10/24 07:42:29;;;;;;;7.47;6.77;;;;;;;;;;5107456;28;25222;-59
2021/10/24 07:44:55;;;;;;;7.27;6.47;;;;;;;;;;5106879;28;24482;-59
2021/10/24 07:47:21;;;;;;;8.68;7.80;;;;;;;;;;5105207;28;24394;-59
2021/10/24 07:49:46;;;;;;;9.73;7.60;;;;;;;;;;5107016;28;24462;-58
2021/10/24 07:52:11;;;;;;;7.53;6.83;;;;;;;;;;5102165;28;24414;-58
2021/10/24 07:54:36;;;;;;;8.07;7.33;;;;;;;;;;5103258;28;24459;-58
2021/10/24 07:57:02;;;;;;;7.68;6.97;;;;;;;;;;5101502;28;24393;-58
2021/10/24 07:59:28;;;;;;;7.65;6.90;;;;;;;;;;5103097;28;24799;-58
2021/10/24 08:01:53;;;;;;;7.80;7.00;;;;;;;;;;5106630;28;24966;-58
2021/10/24 08:04:19;;;;;;;7.97;7.17;;;;;;;;;;5104653;28;24402;-57
2021/10/24 08:06:44;;;;;;;7.80;7.00;;;;;;;;;;5104999;28;24398;-58
2021/10/24 08:09:10;;;;;;;7.70;6.90;;;;;;;;;;5102925;28;24426;-57
2021/10/24 08:11:35;;;;;;;7.43;6.63;;;;;;;;;;5101332;28;24397;-58
2021/10/24 08:14:01;;;;;;;10.27;8.00;;;;;;;;;;5104431;28;25089;-57
2021/10/24 08:16:26;;;;;;;7.88;7.07;;;;;;;;;;5104676;28;24975;-59
2021/10/24 08:18:52;;;;;;;9.83;7.20;;;;;;;;;;5105677;28;24454;-58
2021/10/24 08:21:18;;;;;;;9.53;6.83;;;;;;;;;;5104751;28;24504;-58
2021/10/24 08:23:43;;;;;;;9.13;7.20;;;;;;;;;;5101034;28;24872;-58
2021/10/24 08:26:09;;;;;;;8.93;6.90;;;;;;;;;;5101250;28;24397;-57
2021/10/24 08:28:34;;;;;;;10.60;7.00;;;;;;;;;;5106333;28;24397;-57
2021/10/24 08:30:59;;;;;;;7.80;7.00;;;;;;;;;;5105755;28;24444;-57
2021/10/24 08:33:24;;;;;;;7.68;6.88;;;;;;;;;;5104391;28;24517;-57
2021/10/24 08:35:49;;;;;;;9.33;6.90;;;;;;;;;;5102114;28;24389;-58
2021/10/24 08:38:14;;;;;;;10.40;7.60;;;;;;;;;;5101889;28;24460;-58
2021/10/24 08:40:45;;;;;;;6.83;6.10;;;;;;;;;;5092352;28;24407;-58
2021/10/24 08:43:19;;;;;;;8.38;6.70;;;;;;;;;;5083754;28;24489;-58
2021/10/24 08:45:47;;;;;;;9.50;5.82;;;;;;;;;;5085256;28;24511;-58
2021/10/24 08:48:13;;;;;;;8.30;6.80;;;;;;;;;;5083794;28;24395;-58
2021/10/24 08:50:38;;;;;;;8.48;7.30;;;;;;;;;;5083928;28;24451;-58
2021/10/24 08:53:06;;;;;;;9.20;6.60;;;;;;;;;;5081586;28;24418;-58
2021/10/24 08:55:31;;;;;;;7.40;6.28;;;;;;;;;;5079991;28;24378;-58
2021/10/24 08:57:57;;;;;;;6.78;5.80;;;;;;;;;;5081544;28;24402;-60
2021/10/24 09:00:22;;;;;;;8.38;6.60;;;;;;;;;;5081643;28;24920;-58
2021/10/24 09:03:07;;;;;;;8.90;6.40;;;;;;;;;;5085303;28;24414;-58
2021/10/24 09:05:32;;;;;;;7.38;6.47;;;;;;;;;;5084515;28;24763;-57
2021/10/24 09:07:58;;;;;;;7.80;7.00;;;;;;;;;;5081287;28;24959;-57
2021/10/24 09:10:46;;;;;;;6.13;5.50;;;;;;;;;;5079877;28;24971;-58
2021/10/24 09:13:12;;;;;;;6.97;6.27;;;;;;;;;;5081440;28;24410;-59
2021/10/24 09:15:53;;;;;;;7.82;7.00;;;;;;;;;;5085170;28;24396;-56
2021/10/24 09:18:20;;;;;;;7.88;6.25;;;;;;;;;;5083032;28;24429;-57
2021/10/24 09:20:46;;;;;;;8.20;6.78;;;;;;;;;;5085078;28;24407;-57
2021/10/24 09:23:13;;;;;;;6.63;5.90;;;;;;;;;;5079451;28;24409;-58
2021/10/24 09:25:46;;;;;;;7.70;6.30;;;;;;;;;;5081068;28;24830;-58
2021/10/24 09:28:13;;;;;;;7.50;6.70;;;;;;;;;;5082724;28;24447;-58
2021/10/24 09:30:38;;;;;;;8.63;7.20;;;;;;;;;;5084267;28;24957;-58
2021/10/24 09:33:05;;;;;;;8.15;6.90;;;;;;;;;;5084400;28;24438;-58
2021/10/24 09:35:30;;;;;;;8.80;6.90;;;;;;;;;;5080668;28;25178;-58
2021/10/24 09:38:06;;;;;;;7.70;6.90;;;;;;;;;;5078679;28;24494;-58
2021/10/24 09:40:33;;;;;;;7.10;6.40;;;;;;;;;;5089715;28;24890;-58
2021/10/24 09:43:17;;;;;;;7.43;5.90;;;;;;;;;;5104481;28;24482;-58
2021/10/24 09:45:42;;;;;;;9.57;6.17;;;;;;;;;;5104781;28;24768;-58
2021/10/24 09:48:18;;;;;;;6.83;6.13;;;;;;;;;;5103703;28;25031;-58
2021/10/24 09:50:51;;;;;;;6.85;5.93;;;;;;;;;;5103098;28;24508;-58
2021/10/24 09:53:29;;;;;;;7.32;5.85;;;;;;;;;;5099012;28;24419;-59
2021/10/24 09:55:56;;;;;;;8.75;6.22;;;;;;;;;;5099031;28;24815;-58
2021/10/24 09:58:22;;;;;;;6.93;5.90;;;;;;;;;;5104710;28;24604;-58
2021/10/24 10:00:47;;;;;;;6.10;5.50;;;;;;;;;;5104834;28;24997;-58
2021/10/24 10:03:17;;;;;;;7.90;5.90;;;;;;;;;;5102795;28;24398;-58
2021/10/24 10:05:42;;;;;;;7.18;5.80;;;;;;;;;;5104174;28;24990;-58
2021/10/24 10:08:08;;;;;;;6.47;5.33;;;;;;;;;;5100519;28;24444;-58
2021/10/24 10:10:37;;;;;;;7.70;5.60;;;;;;;;;;5099165;28;24931;-58
2021/10/24 10:13:05;;;;;;;7.63;6.40;;;;;;;;;;5102623;28;24406;-58
2021/10/24 10:15:33;;;;;;;8.18;6.60;;;;;;;;;;5104145;28;24390;-58
2021/10/24 10:18:00;;;;;;;8.07;6.32;;;;;;;;;;5104209;28;24407;-58
2021/10/24 10:20:27;;;;;;;7.30;5.50;;;;;;;;;;5098922;28;24748;-58
2021/10/24 10:23:09;;;;;;;7.07;5.10;;;;;;;;;;5097207;28;24524;-58
2021/10/24 10:25:36;;;;;;;7.20;4.70;;;;;;;;;;5104157;28;24474;-58
2021/10/24 10:28:01;;;;;;;6.95;4.95;;;;;;;;;;5103861;28;24479;-57
2021/10/24 10:30:33;;;;;;;11.27;5.07;;;;;;;;;;5102636;28;24939;-58
2021/10/24 10:32:58;;;;;;;5.53;4.65;;;;;;;;;;5103807;28;24890;-58
2021/10/24 10:35:26;;;;;;;8.17;4.20;;;;;;;;;;5100129;28;24986;-58
2021/10/24 10:38:03;;;;;;;5.70;3.70;;;;;;;;;;5098631;28;24443;-59
2021/10/24 10:40:32;;;;;;;4.65;3.80;;;;;;;;;;5091652;28;24410;-58
2021/10/24 10:43:02;;;;;;;6.00;3.80;;;;;;;;;;5083198;28;24401;-58
2021/10/24 10:45:36;;;;;;;5.97;3.75;;;;;;;;;;5081809;28;25514;-58
2021/10/24 10:48:04;;;;;;;3.60;2.90;;;;;;;;;;5083481;28;24627;-58
2021/10/24 10:50:38;;;;;;;4.70;3.00;;;;;;;;;;5078293;28;24395;-58
2021/10/24 10:53:04;;;;;;;3.67;2.90;;;;;;;;;;5079945;28;24421;-58
2021/10/24 10:55:48;;;;;;;4.50;3.28;;;;;;;;;;5079783;28;24467;-58
2021/10/24 10:58:32;;;;;;;6.07;3.30;;;;;;;;;;5081402;28;24398;-58
2021/10/24 11:00:57;;;;;;;6.65;3.60;;;;;;;;;;5083056;28;24839;-57
2021/10/24 11:03:44;;;;;;;4.97;3.30;;;;;;;;;;5081802;28;25024;-57
2021/10/24 11:06:10;;;;;;;7.85;3.22;;;;;;;;;;5081292;28;24477;-57
2021/10/24 11:08:54;;;;;;;4.05;2.92;;;;;;;;;;5078177;28;24456;-57
2021/10/24 11:11:41;;;;;;;4.88;3.15;;;;;;;;;;5078099;28;24386;-58
2021/10/24 11:14:16;;;;;;;3.28;2.60;;;;;;;;;;5079679;28;24394;-58
2021/10/24 11:16:42;;;;;;;5.13;3.40;;;;;;;;;;5083419;28;24382;-58
2021/10/24 11:19:25;;;;;;;3.90;2.83;;;;;;;;;;5083159;28;24749;-59
2021/10/24 11:21:50;;;;;;;3.92;2.90;;;;;;;;;;5077704;28;24543;-57
2021/10/24 11:24:16;;;;;;;5.73;3.23;;;;;;;;;;5077435;28;24996;-57
2021/10/24 11:26:42;;;;;;;4.87;3.30;;;;;;;;;;5083346;28;24385;-57
2021/10/24 11:29:07;;;;;;;5.57;3.30;;;;;;;;;;5070059;28;24941;-57
2021/10/24 11:31:32;;;;;;;4.63;3.13;;;;;;;;;;5080444;28;24410;-60
2021/10/24 11:33:57;;;;;;;4.73;3.10;;;;;;;;;;5082970;28;24474;-58
2021/10/24 11:36:23;;;;;;;5.47;3.60;;;;;;;;;;5077485;28;24481;-57
2021/10/24 11:38:53;;;;;;;4.50;3.10;;;;;;;;;;5082083;28;24394;-58
2021/10/24 11:41:18;;;;;;;4.60;3.33;;;;;;;;;;5101667;28;24417;-57
2021/10/24 11:43:43;;;;;;;6.53;3.40;;;;;;;;;;5103534;28;24382;-58
2021/10/24 11:46:10;;;;;;;4.43;3.58;;;;;;;;;;5101263;28;24428;-57
2021/10/24 11:48:36;;;;;;;4.43;3.28;;;;;;;;;;5101575;28;24473;-59
2021/10/24 11:51:02;;;;;;;5.47;3.50;;;;;;;;;;5099502;28;24504;-57
2021/10/24 11:53:31;;;;;;;4.47;3.22;;;;;;;;;;5098602;28;24924;-57
2021/10/24 11:55:58;;;;;;;5.80;3.40;;;;;;;;;;5102673;28;24790;-57
2021/10/24 11:58:40;;;;;;;4.50;3.20;;;;;;;;;;5106945;28;24385;-58
2021/10/24 12:01:06;;;;;;;3.78;2.97;;;;;;;;;;5106994;28;24385;-57
2021/10/24 12:03:33;;;;;;;5.07;3.00;;;;;;;;;;5102441;28;24408;-58
2021/10/24 12:05:58;;;;;;;3.83;3.20;;;;;;;;;;5102983;28;24431;-58
2021/10/24 12:08:43;;;;;;;4.50;3.20;;;;;;;;;;5103053;28;24401;-57
2021/10/24 12:11:12;;;;;;;4.15;3.22;;;;;;;;;;5104764;28;24402;-57
2021/10/24 12:13:38;;;;;;;4.45;3.40;;;;;;;;;;5105993;28;24947;-57
2021/10/24 12:16:04;;;;;;;4.57;3.30;;;;;;;;;;5106353;28;24396;-57
2021/10/24 12:18:30;;;;;;;4.32;3.40;;;;;;;;;;5101070;28;24398;-57
2021/10/24 12:20:57;;;;;;;4.60;3.30;;;;;;;;;;5100877;28;24390;-57
2021/10/24 12:23:25;;;;;;;5.97;3.55;;;;;;;;;;5102971;28;24427;-57
2021/10/24 12:25:52;;;;;;;4.38;2.88;;;;;;;;;;5106169;27;24478;-57
2021/10/24 12:28:28;;;;;;;3.42;3.13;;;;;;;;;;5104167;28;24905;-57
2021/10/24 12:30:58;;;;;;;4.53;3.08;;;;;;;;;;5104315;28;24406;-57
2021/10/24 12:33:30;;;;;;;5.47;3.30;;;;;;;;;;5100629;28;24443;-57
2021/10/24 12:35:58;;;;;;;5.10;3.30;;;;;;;;;;5100450;28;24390;-58
2021/10/24 12:38:24;;;;;;;5.20;3.55;;;;;;;;;;5101607;28;24516;-57
2021/10/24 12:40:56;;;;;;;5.43;3.30;;;;;;;;;;5085823;28;24506;-58
2021/10/24 12:43:22;;;;;;;4.53;3.50;;;;;;;;;;5084146;28;24505;-58
2021/10/24 12:45:50;;;;;;;3.50;2.70;;;;;;;;;;5083415;28;24399;-58
2021/10/24 12:48:15;;;;;;;4.50;3.33;;;;;;;;;;5079747;28;24395;-58
2021/10/24 12:50:41;;;;;;;4.32;3.40;;;;;;;;;;5082117;28;24448;-58
2021/10/24 12:53:07;;;;;;;3.70;3.20;;;;;;;;;;5081955;28;24406;-58
2021/10/24 12:55:33;;;;;;;4.13;3.47;;;;;;;;;;5083738;28;24463;-58
2021/10/24 12:58:00;;;;;;;3.75;3.40;;;;;;;;;;5084872;28;24469;-58
2021/10/24 13:00:25;;;;;;;3.53;3.10;;;;;;;;;;5083512;28;24389;-58
2021/10/24 13:02:51;;;;;;;3.40;3.10;;;;;;;;;;5083751;28;24509;-58
2021/10/24 13:05:16;;;;;;;6.27;3.13;;;;;;;;;;5079029;28;24471;-58
2021/10/24 13:07:41;;;;;;;4.38;3.10;;;;;;;;;;5081894;28;24769;-58
2021/10/24 13:10:06;;;;;;;3.08;2.78;;;;;;;;;;5081552;28;25042;-58
2021/10/24 13:12:31;;;;;;;6.80;3.00;;;;;;;;;;5085404;28;24483;-58
2021/10/24 13:14:56;;;;;;;4.70;2.90;;;;;;;;;;5084629;28;24445;-58
2021/10/24 13:17:21;;;;;;;4.07;3.13;;;;;;;;;;5083320;28;24395;-58
2021/10/24 13:19:47;;;;;;;4.10;3.10;;;;;;;;;;5081441;28;24394;-59
2021/10/24 13:24:56;;;;;;;3.55;2.97;;;;;;;;;;5079107;28;24390;-58
2021/10/24 13:27:21;;;;;;;4.83;3.20;;;;;;;;;;5083014;28;24508;-58
2021/10/24 13:29:46;;;;;;;4.90;3.00;;;;;;;;;;5084955;28;24737;-58
2021/10/24 13:32:11;;;;;;;4.70;3.30;;;;;;;;;;5082585;28;24552;-58
2021/10/24 13:34:37;;;;;;;3.50;3.20;;;;;;;;;;5081157;28;24387;-58
2021/10/24 13:37:02;;;;;;;4.20;3.67;;;;;;;;;;5081085;28;24519;-58
2021/10/24 13:39:27;;;;;;;5.17;3.90;;;;;;;;;;5094994;28;24390;-58
2021/10/24 13:41:52;;;;;;;5.22;3.70;;;;;;;;;;5103074;28;24783;-58
2021/10/24 13:44:18;;;;;;;4.70;3.30;;;;;;;;;;5103202;28;24394;-59
2021/10/24 13:46:43;;;;;;;4.18;3.33;;;;;;;;;;5103028;28;24421;-58
2021/10/24 13:49:08;;;;;;;4.47;3.30;;;;;;;;;;5100967;28;24444;-59
2021/10/24 13:51:33;;;;;;;3.80;2.90;;;;;;;;;;5099147;28;24382;-58
2021/10/24 13:53:58;;;;;;;5.13;3.37;;;;;;;;;;5100806;28;24965;-58
2021/10/24 13:56:24;;;;;;;3.50;2.97;;;;;;;;;;5104565;28;24485;-59
2021/10/24 13:58:49;;;;;;;4.28;3.10;;;;;;;;;;5104732;28;24435;-58
2021/10/24 14:01:14;;;;;;;3.40;3.10;;;;;;;;;;5100670;28;24433;-59
2021/10/24 14:03:42;;;;;;;4.95;3.95;;;;;;;;;;5099181;28;24988;-59
2021/10/24 14:06:07;;;;;;;4.30;3.72;;;;;;;;;;5100616;28;24831;-59
2021/10/24 14:08:32;;;;;;;5.53;4.10;;;;;;;;;;5101420;28;24386;-59
2021/10/24 14:10:57;;;;;;;4.03;3.70;;;;;;;;;;5104337;28;24426;-58
2021/10/24 14:13:22;;;;;;;4.57;3.60;;;;;;;;;;5102174;28;24716;-58
2021/10/24 14:15:47;;;;;;;4.50;3.70;;;;;;;;;;5103881;28;24417;-58
2021/10/24 14:18:13;;;;;;;4.68;3.28;;;;;;;;;;5100312;28;24745;-59
2021/10/24 14:20:39;;;;;;;3.93;3.53;;;;;;;;;;5098629;28;24417;-58
2021/10/24 14:23:04;;;;;;;4.10;3.70;;;;;;;;;;5115917;27;24402;-57
2021/10/24 14:25:29;;;;;;;3.92;3.53;;;;;;;;;;5102491;28;24396;-57
2021/10/24 14:27:54;;;;;;;4.50;4.10;;;;;;;;;;5103939;28;24400;-59
2021/10/24 14:30:19;;;;;;;6.07;3.50;;;;;;;;;;5102246;28;25241;-57
2021/10/24 14:32:45;;;;;;;5.47;4.00;;;;;;;;;;5102079;28;25058;-57
2021/10/24 14:35:11;;;;;;;5.13;3.70;;;;;;;;;;5100238;28;24402;-57
2021/10/24 14:37:37;;;;;;;5.55;3.80;;;;;;;;;;5098268;28;24397;-57
2021/10/24 14:40:03;;;;;;;4.30;3.90;;;;;;;;;;5080893;28;24407;-57
2021/10/24 14:42:28;;;;;;;4.85;3.70;;;;;;;;;;5084122;28;24402;-58